Time;durP1;ratioP1;P1;durP2;ratioP2;P2;SDS_P1;SDS_P2;PMS_P1;PMS_P2;Temp;Humidity;BMP_temperature;BMP_pressure;BME280_temperature;BME280_humidity;BME280_pressure;Samples;Min_cycle;Max_cycle;Signal;HPM_P1;HPM_P2
2023/01/12 00:01:40;;;;;;;2.65;0.85;;;10.30;84.10;;;;;;5094573;28;20032;-67
2023/01/12 00:04:07;;;;;;;1.73;1.08;;;10.30;84.20;;;;;;5092449;28;20028;-67
2023/01/12 00:06:33;;;;;;;0.70;0.63;;;10.30;84.20;;;;;;5076939;28;20055;-67
2023/01/12 00:09:01;;;;;;;2.63;0.75;;;10.30;84.30;;;;;;5091775;28;20044;-67
2023/01/12 00:11:27;;;;;;;2.25;0.85;;;10.30;84.40;;;;;;5073471;28;20017;-68
2023/01/12 00:13:53;;;;;;;6.60;1.08;;;10.30;84.40;;;;;;5109828;28;20117;-58
2023/01/12 00:16:33;;;;;;;2.45;0.80;;;10.30;84.50;;;;;;5111134;28;20020;-67
2023/01/12 00:19:25;;;;;;;1.83;1.00;;;10.30;84.50;;;;;;5101693;28;20024;-67
2023/01/12 00:24:18;;;;;;;0.95;0.80;;;10.40;84.30;;;;;;5096360;28;20068;-67
2023/01/12 00:26:46;;;;;;;2.38;1.05;;;10.40;84.30;;;;;;5078879;28;20032;-67
2023/01/12 00:29:11;;;;;;;3.17;0.82;;;10.40;84.30;;;;;;5097406;28;20020;-67
2023/01/12 00:31:37;;;;;;;3.67;0.80;;;10.40;84.30;;;;;;5084281;28;20028;-67
2023/01/12 00:34:03;;;;;;;4.13;1.13;;;10.40;84.30;;;;;;5107990;28;20044;-68
2023/01/12 00:36:28;;;;;;;1.17;0.82;;;10.40;84.50;;;;;;5097668;28;20020;-67
2023/01/12 00:38:54;;;;;;;1.67;1.00;;;10.40;84.60;;;;;;5091029;28;20479;-67
2023/01/12 00:46:49;;;;;;;2.05;0.93;;;10.40;85.00;;;;;;5084244;28;20093;-67
2023/01/12 00:49:15;;;;;;;1.23;0.88;;;10.40;85.00;;;;;;5112048;28;20008;-68
2023/01/12 00:51:41;;;;;;;1.08;0.73;;;10.50;84.90;;;;;;5100257;28;20025;-68
2023/01/12 00:54:07;;;;;;;6.88;1.13;;;10.50;84.90;;;;;;5109407;28;20390;-68
2023/01/12 00:56:36;;;;;;;2.65;1.10;;;10.50;85.00;;;;;;5105582;28;20034;-68
2023/01/12 00:59:02;;;;;;;7.72;1.17;;;10.50;85.10;;;;;;5110879;28;20024;-68
2023/01/12 01:01:28;;;;;;;4.63;1.13;;;10.50;85.20;;;;;;5106475;28;20437;-68
2023/01/12 01:03:54;;;;;;;2.95;1.23;;;10.50;85.30;;;;;;5099587;28;20436;-68
2023/01/12 01:06:20;;;;;;;1.38;1.15;;;10.50;86.00;;;;;;5108301;28;20032;-67
2023/01/12 01:08:46;;;;;;;3.25;1.48;;;10.50;85.50;;;;;;5086714;28;20070;-67
2023/01/12 01:11:13;;;;;;;6.53;1.45;;;10.50;85.50;;;;;;5086840;28;20089;-67
2023/01/12 01:13:40;;;;;;;2.40;1.08;;;10.50;85.50;;;;;;5106028;28;20027;-67
2023/01/12 01:16:07;;;;;;;0.80;0.80;;;10.50;85.50;;;;;;5103998;28;20390;-67
2023/01/12 01:18:34;;;;;;;5.05;1.73;;;10.60;85.50;;;;;;5075225;28;20043;-67
2023/01/12 01:21:00;;;;;;;4.65;1.45;;;10.60;85.60;;;;;;5094984;28;20039;-67
2023/01/12 01:23:28;;;;;;;2.72;1.67;;;10.60;85.90;;;;;;5097752;28;20164;-67
2023/01/12 01:25:54;;;;;;;8.52;1.88;;;10.60;86.60;;;;;;5094497;28;20383;-60
2023/01/12 01:28:20;;;;;;;2.83;1.50;;;10.60;86.20;;;;;;5083183;28;20031;-60
2023/01/12 01:30:47;;;;;;;3.05;1.10;;;10.50;86.30;;;;;;5088710;28;20053;-68
2023/01/12 01:33:13;;;;;;;3.45;1.33;;;10.50;86.30;;;;;;5090447;28;20024;-68
2023/01/12 01:35:39;;;;;;;16.48;2.50;;;10.50;86.40;;;;;;5062309;28;20027;-59
2023/01/12 01:38:05;;;;;;;4.03;1.98;;;10.50;86.40;;;;;;5090971;28;20497;-67
2023/01/12 01:40:32;;;;;;;9.35;2.58;;;10.60;86.40;;;;;;5076432;28;20031;-67
2023/01/12 01:42:58;;;;;;;5.93;1.75;;;10.60;86.40;;;;;;5093548;28;20112;-60
2023/01/12 01:45:24;;;;;;;3.13;1.42;;;10.60;86.50;;;;;;5093707;28;20023;-59
2023/01/12 01:47:59;;;;;;;2.72;1.27;;;10.60;86.70;;;;;;5072766;28;20059;-59
2023/01/12 01:50:36;;;;;;;1.92;1.38;;;10.60;86.90;;;;;;5091940;28;20054;-59
2023/01/12 01:53:09;;;;;;;3.92;2.00;;;10.60;86.90;;;;;;5090111;28;20024;-67
2023/01/12 01:55:41;;;;;;;3.42;1.30;;;10.60;87.00;;;;;;5094783;28;20168;-67
2023/01/12 01:58:14;;;;;;;2.20;1.25;;;10.60;87.20;;;;;;5096009;28;20032;-59
2023/01/12 02:00:41;;;;;;;6.38;1.80;;;10.60;87.20;;;;;;5107234;27;20028;-67
2023/01/12 02:03:09;;;;;;;2.00;1.00;;;10.60;87.30;;;;;;5090420;28;20047;-67
2023/01/12 02:05:38;;;;;;;4.55;1.55;;;10.60;87.40;;;;;;5103126;28;20019;-59
2023/01/12 02:08:17;;;;;;;3.28;1.30;;;10.60;87.40;;;;;;5093990;28;20034;-67
2023/01/12 02:10:43;;;;;;;3.97;1.75;;;10.60;87.30;;;;;;5089253;28;20471;-59
2023/01/12 02:16:20;;;;;;;6.75;1.92;;;10.60;87.40;;;;;;5086238;28;20034;-65
2023/01/12 02:18:55;;;;;;;6.32;1.27;;;10.60;87.60;;;;;;5086131;28;20027;-59
2023/01/12 02:21:38;;;;;;;3.00;1.33;;;10.60;87.90;;;;;;5094471;28;20044;-59
2023/01/12 02:24:28;;;;;;;2.80;1.73;;;10.60;88.10;;;;;;5096419;28;20031;-67
2023/01/12 02:27:11;;;;;;;3.13;1.63;;;10.60;88.10;;;;;;5078857;28;20038;-67
2023/01/12 02:29:56;;;;;;;4.03;1.38;;;10.60;88.10;;;;;;5094939;28;20024;-67
2023/01/12 02:32:46;;;;;;;7.40;1.80;;;10.60;88.10;;;;;;5091605;28;20440;-67
2023/01/12 02:35:24;;;;;;;3.85;0.90;;;10.60;88.20;;;;;;5090520;28;20023;-60
2023/01/12 02:37:52;;;;;;;5.03;1.30;;;10.60;88.30;;;;;;5095471;28;20123;-60
2023/01/12 02:40:20;;;;;;;1.35;0.63;;;10.60;88.30;;;;;;5095601;28;20036;-60
2023/01/12 02:43:15;;;;;;;3.42;1.23;;;10.60;88.20;;;;;;5080300;28;20514;-60
2023/01/12 02:46:01;;;;;;;6.50;0.98;;;10.60;88.00;;;;;;5090544;28;20062;-60
2023/01/12 02:48:57;;;;;;;6.13;1.75;;;10.60;88.00;;;;;;5092633;28;20017;-60
2023/01/12 02:51:50;;;;;;;4.50;1.10;;;10.60;88.00;;;;;;5081226;28;20098;-67
2023/01/12 02:54:19;;;;;;;4.47;1.50;;;10.60;88.10;;;;;;5079923;28;20024;-68
2023/01/12 02:56:51;;;;;;;2.78;1.17;;;10.50;88.30;;;;;;5094011;28;20064;-67
2023/01/12 02:59:22;;;;;;;4.90;1.17;;;10.50;88.30;;;;;;5090436;28;20051;-67
2023/01/12 03:01:50;;;;;;;7.07;1.33;;;10.50;88.40;;;;;;5092648;28;20030;-60
2023/01/12 03:04:17;;;;;;;5.30;1.45;;;10.50;88.40;;;;;;5100850;28;20390;-67
2023/01/12 03:06:46;;;;;;;7.53;1.40;;;10.60;88.50;;;;;;5110454;28;20020;-60
2023/01/12 03:09:16;;;;;;;4.43;1.05;;;10.60;88.40;;;;;;5101247;28;20067;-67
2023/01/12 03:11:42;;;;;;;0.70;0.70;;;10.60;88.40;;;;;;5099331;28;20055;-67
2023/01/12 03:14:09;;;;;;;2.85;1.30;;;10.60;88.30;;;;;;5095445;28;20097;-67
2023/01/12 03:16:39;;;;;;;2.92;1.65;;;10.60;88.30;;;;;;5099795;28;20479;-68
2023/01/12 03:19:13;;;;;;;1.73;1.17;;;10.60;88.30;;;;;;5104456;28;20530;-68
2023/01/12 03:21:46;;;;;;;2.55;1.45;;;10.60;88.10;;;;;;5087034;28;20024;-68
2023/01/12 03:24:17;;;;;;;3.03;1.23;;;10.60;88.10;;;;;;5107181;28;20422;-67
2023/01/12 03:26:48;;;;;;;2.80;0.68;;;10.60;88.00;;;;;;5088927;28;20024;-68
2023/01/12 03:29:34;;;;;;;4.40;1.67;;;10.60;88.00;;;;;;5098087;28;20077;-67
2023/01/12 03:32:00;;;;;;;4.63;1.77;;;10.60;88.00;;;;;;5101292;28;20077;-67
2023/01/12 03:34:26;;;;;;;7.40;2.03;;;10.60;88.10;;;;;;5101103;28;20024;-67
2023/01/12 03:37:05;;;;;;;2.72;1.42;;;10.60;88.20;;;;;;5100370;28;20055;-67
2023/01/12 03:40:07;;;;;;;4.00;1.75;;;10.50;88.20;;;;;;5100412;28;20027;-67
2023/01/12 03:42:56;;;;;;;3.67;1.73;;;10.60;88.40;;;;;;5100590;28;20024;-67
2023/01/12 03:45:40;;;;;;;3.92;1.50;;;10.50;88.40;;;;;;5105552;28;20015;-60
2023/01/12 03:48:17;;;;;;;9.93;1.75;;;10.50;88.50;;;;;;5094090;28;20177;-57
2023/01/12 03:50:49;;;;;;;5.65;1.98;;;10.60;88.50;;;;;;5090474;28;20076;-60
2023/01/12 03:53:20;;;;;;;3.15;1.52;;;10.60;88.50;;;;;;5099265;28;20042;-58
2023/01/12 03:55:48;;;;;;;5.53;1.00;;;10.60;88.50;;;;;;5102973;28;20023;-59
2023/01/12 03:58:15;;;;;;;1.25;0.82;;;10.60;88.40;;;;;;5098973;28;20483;-59
2023/01/12 04:00:41;;;;;;;1.35;0.98;;;10.60;88.40;;;;;;5094574;28;20030;-59
2023/01/12 04:03:13;;;;;;;2.95;1.45;;;10.60;88.50;;;;;;5076379;28;20028;-59
2023/01/12 04:05:40;;;;;;;2.13;1.15;;;10.60;88.50;;;;;;5091823;28;20147;-59
2023/01/12 04:08:07;;;;;;;3.35;1.40;;;10.50;88.60;;;;;;5074331;28;20032;-60
2023/01/12 04:10:33;;;;;;;1.55;1.00;;;10.50;88.60;;;;;;5082950;28;20092;-60
2023/01/12 04:12:58;;;;;;;6.15;1.33;;;10.60;88.60;;;;;;5072518;28;20031;-60
2023/01/12 04:15:24;;;;;;;1.55;1.13;;;10.50;88.70;;;;;;5089416;28;20033;-59
2023/01/12 04:17:50;;;;;;;4.35;1.05;;;10.50;88.80;;;;;;5099922;28;21170;-60
2023/01/12 04:20:16;;;;;;;2.45;0.85;;;10.50;88.90;;;;;;5089277;28;20186;-60
2023/01/12 04:22:43;;;;;;;0.70;0.70;;;10.50;88.90;;;;;;5109812;28;20024;-68
2023/01/12 04:25:10;;;;;;;2.33;1.10;;;10.50;88.90;;;;;;5096238;28;20031;-68
2023/01/12 04:27:39;;;;;;;2.30;1.13;;;10.50;88.90;;;;;;5088733;28;20041;-60
2023/01/12 04:30:05;;;;;;;3.92;1.40;;;10.50;88.80;;;;;;5091340;28;20042;-60
2023/01/12 04:32:31;;;;;;;2.35;1.40;;;10.50;88.80;;;;;;5100310;28;20080;-60
2023/01/12 04:34:57;;;;;;;3.65;1.23;;;10.50;88.80;;;;;;5093504;28;20463;-60
2023/01/12 04:37:22;;;;;;;0.90;0.70;;;10.50;88.80;;;;;;5090681;28;20035;-60
2023/01/12 04:39:48;;;;;;;3.63;1.00;;;10.50;88.70;;;;;;5090724;28;20032;-60
2023/01/12 04:44:58;;;;;;;2.95;0.90;;;10.60;88.50;;;;;;5085290;28;20039;-67
2023/01/12 04:47:24;;;;;;;0.95;0.60;;;10.60;88.40;;;;;;5094580;28;20040;-68
2023/01/12 04:49:49;;;;;;;11.98;1.45;;;10.50;88.40;;;;;;5074174;28;20020;-67
2023/01/12 04:52:15;;;;;;;3.28;0.95;;;10.50;88.40;;;;;;5082227;28;20470;-67
2023/01/12 04:54:41;;;;;;;5.90;1.05;;;10.50;88.40;;;;;;5096843;28;20034;-67
2023/01/12 04:57:06;;;;;;;1.63;1.00;;;10.50;88.40;;;;;;5102653;28;20168;-67
2023/01/12 04:59:32;;;;;;;1.08;0.77;;;10.50;88.40;;;;;;5078104;28;20031;-68
2023/01/12 05:01:58;;;;;;;2.15;0.95;;;10.60;88.40;;;;;;5097530;28;20394;-68
2023/01/12 05:04:24;;;;;;;2.25;0.93;;;10.60;88.30;;;;;;5100561;28;20035;-67
2023/01/12 05:06:50;;;;;;;3.65;1.20;;;10.60;88.80;;;;;;5092447;28;20043;-67
2023/01/12 05:12:00;;;;;;;3.75;0.98;;;10.50;88.40;;;;;;5079519;28;20074;-67
2023/01/12 05:14:25;;;;;;;3.08;1.15;;;10.50;88.50;;;;;;5091048;28;20064;-59
2023/01/12 05:16:51;;;;;;;2.00;1.13;;;10.50;88.50;;;;;;5091423;28;20036;-67
2023/01/12 05:19:17;;;;;;;2.47;0.85;;;10.50;88.60;;;;;;5101344;28;20117;-67
2023/01/12 05:21:42;;;;;;;2.30;1.38;;;10.50;88.70;;;;;;5110531;28;20023;-67
2023/01/12 05:24:08;;;;;;;3.38;1.20;;;10.60;88.70;;;;;;5081210;28;20031;-67
2023/01/12 05:26:34;;;;;;;1.15;0.85;;;10.50;88.70;;;;;;5085887;28;20025;-68
2023/01/12 05:28:59;;;;;;;6.30;0.73;;;10.60;88.70;;;;;;5090175;28;20073;-66
2023/01/12 05:31:25;;;;;;;2.47;0.60;;;10.60;88.70;;;;;;5098502;28;20031;-58
2023/01/12 05:33:51;;;;;;;0.85;0.70;;;10.60;88.60;;;;;;5078613;28;20037;-58
2023/01/12 05:36:16;;;;;;;2.17;1.10;;;10.60;88.50;;;;;;5104161;28;20067;-60
2023/01/12 05:38:42;;;;;;;1.27;0.80;;;10.60;88.40;;;;;;5095224;28;20032;-59
2023/01/12 05:41:11;;;;;;;2.15;1.20;;;10.60;88.40;;;;;;5101772;28;20028;-59
2023/01/12 05:43:49;;;;;;;2.10;0.90;;;10.60;88.40;;;;;;5072633;28;20055;-59
2023/01/12 05:46:39;;;;;;;0.93;0.60;;;10.60;88.70;;;;;;5092090;28;20040;-59
2023/01/12 05:49:04;;;;;;;0.57;0.57;;;10.60;88.70;;;;;;5089370;28;20467;-58
2023/01/12 05:51:31;;;;;;;1.02;0.60;;;10.60;88.70;;;;;;5092467;28;20027;-58
2023/01/12 05:53:57;;;;;;;4.50;0.88;;;10.60;88.70;;;;;;5082695;28;20055;-59
2023/01/12 05:56:25;;;;;;;4.50;1.05;;;10.60;88.70;;;;;;5082742;28;20020;-59
2023/01/12 05:58:53;;;;;;;2.95;0.70;;;10.60;88.70;;;;;;5088220;28;20067;-59
2023/01/12 06:01:20;;;;;;;0.35;0.35;;;10.70;88.70;;;;;;5082195;28;20031;-59
2023/01/12 06:03:54;;;;;;;1.20;0.70;;;10.70;88.70;;;;;;5071506;28;20196;-59
2023/01/12 06:06:21;;;;;;;0.55;0.55;;;10.70;88.60;;;;;;5088072;28;20115;-59
2023/01/12 06:08:47;;;;;;;8.25;1.83;;;10.70;88.60;;;;;;5108395;28;20067;-59
2023/01/12 06:13:59;;;;;;;2.92;0.50;;;10.70;88.70;;;;;;5085480;28;20038;-58
2023/01/12 06:16:26;;;;;;;1.75;0.52;;;10.70;88.80;;;;;;5091774;28;20059;-58
2023/01/12 06:18:52;;;;;;;0.80;0.70;;;10.70;88.80;;;;;;5088354;28;20110;-66
2023/01/12 06:21:17;;;;;;;1.30;0.60;;;10.70;88.80;;;;;;5093212;28;20102;-66
2023/01/12 06:23:43;;;;;;;3.10;0.85;;;10.70;88.80;;;;;;5077298;28;20106;-67
2023/01/12 06:26:09;;;;;;;1.85;0.65;;;10.80;88.70;;;;;;5088293;28;20420;-67
2023/01/12 06:28:36;;;;;;;3.13;0.77;;;10.80;88.70;;;;;;5089007;28;20032;-60
2023/01/12 06:31:05;;;;;;;3.70;0.70;;;10.80;88.70;;;;;;5098894;28;20027;-67
2023/01/12 06:33:31;;;;;;;0.88;0.40;;;10.80;88.80;;;;;;5071482;28;20031;-60
2023/01/12 06:35:58;;;;;;;0.68;0.50;;;10.80;88.70;;;;;;5089347;28;20016;-59
2023/01/12 06:38:26;;;;;;;0.90;0.70;;;10.80;88.80;;;;;;5105739;28;20031;-59
2023/01/12 06:40:51;;;;;;;5.68;0.77;;;10.80;88.90;;;;;;5090180;28;20115;-60
2023/01/12 06:43:20;;;;;;;1.90;0.82;;;10.80;88.90;;;;;;5090222;28;20103;-60
2023/01/12 06:45:46;;;;;;;4.72;1.15;;;10.80;88.90;;;;;;5093884;28;20028;-60
2023/01/12 06:48:12;;;;;;;1.33;0.70;;;10.80;88.90;;;;;;5097482;28;20047;-60
2023/01/12 06:50:37;;;;;;;0.30;0.30;;;10.90;88.90;;;;;;5089967;28;20024;-60
2023/01/12 06:53:05;;;;;;;3.55;0.60;;;10.80;88.90;;;;;;5072497;28;20024;-59
2023/01/12 06:55:31;;;;;;;1.35;0.60;;;10.80;88.90;;;;;;5089506;28;20028;-67
2023/01/12 06:58:01;;;;;;;2.20;0.98;;;10.90;89.10;;;;;;5078994;28;20032;-59
2023/01/12 07:00:27;;;;;;;0.55;0.40;;;10.90;89.10;;;;;;5106069;28;20046;-60
2023/01/12 07:02:53;;;;;;;1.85;0.68;;;10.90;89.10;;;;;;5095651;28;20028;-67
2023/01/12 07:05:18;;;;;;;3.30;0.80;;;10.90;89.20;;;;;;5085822;28;20119;-59
2023/01/12 07:07:44;;;;;;;0.70;0.40;;;10.90;89.20;;;;;;5081476;28;20368;-66
2023/01/12 07:10:11;;;;;;;0.40;0.38;;;10.90;89.40;;;;;;5093390;28;20526;-60
2023/01/12 07:12:37;;;;;;;3.00;0.28;;;10.90;89.50;;;;;;5086026;28;20032;-61
2023/01/12 07:15:03;;;;;;;0.35;0.35;;;10.90;89.50;;;;;;5097916;28;20115;-60
2023/01/12 07:17:29;;;;;;;0.43;0.43;;;10.90;89.60;;;;;;5089770;28;20024;-60
2023/01/12 07:19:55;;;;;;;0.98;0.63;;;11.00;89.70;;;;;;5078916;28;20147;-61
2023/01/12 07:22:21;;;;;;;1.00;0.30;;;11.00;89.80;;;;;;5088484;28;20096;-70
2023/01/12 07:24:47;;;;;;;4.05;0.65;;;11.00;89.80;;;;;;5095207;28;20491;-70
2023/01/12 07:27:13;;;;;;;0.80;0.77;;;11.00;90.00;;;;;;5084690;28;20029;-60
2023/01/12 07:29:39;;;;;;;0.55;0.55;;;11.00;90.00;;;;;;5088128;28;20090;-60
2023/01/12 07:32:04;;;;;;;0.40;0.40;;;11.00;90.00;;;;;;5090608;28;20025;-60
2023/01/12 07:34:30;;;;;;;1.55;0.85;;;11.00;90.30;;;;;;5089732;28;20035;-61
2023/01/12 07:36:56;;;;;;;0.40;0.40;;;11.00;90.10;;;;;;5090725;28;20035;-61
2023/01/12 07:39:22;;;;;;;0.38;0.38;;;11.00;90.10;;;;;;5090630;28;20029;-69
2023/01/12 07:44:32;;;;;;;1.77;0.77;;;11.00;90.10;;;;;;5078710;28;20043;-69
2023/01/12 07:47:00;;;;;;;0.60;0.32;;;11.00;90.20;;;;;;5090373;28;20027;-70
2023/01/12 07:49:27;;;;;;;0.52;0.52;;;11.00;90.30;;;;;;5081780;28;20115;-68
2023/01/12 07:51:54;;;;;;;0.82;0.55;;;11.00;90.30;;;;;;5096777;28;20036;-68
2023/01/12 07:54:20;;;;;;;0.90;0.70;;;11.10;90.40;;;;;;5105614;28;20063;-67
2023/01/12 07:56:45;;;;;;;1.00;0.70;;;11.10;90.30;;;;;;5094090;28;20082;-71
2023/01/12 07:59:11;;;;;;;1.52;0.80;;;11.10;90.60;;;;;;5107045;28;20032;-72
2023/01/12 08:01:38;;;;;;;0.70;0.50;;;11.10;90.30;;;;;;5095387;28;20069;-73
2023/01/12 08:04:04;;;;;;;0.70;0.60;;;11.10;90.30;;;;;;5102308;28;20030;-72
2023/01/12 08:06:29;;;;;;;1.52;0.82;;;11.20;90.40;;;;;;5090470;28;20036;-71
2023/01/12 08:08:55;;;;;;;0.50;0.50;;;11.20;90.40;;;;;;5096107;28;20470;-61
2023/01/12 08:11:21;;;;;;;1.40;0.55;;;11.20;90.40;;;;;;5076272;28;20056;-72
2023/01/12 08:13:47;;;;;;;0.63;0.50;;;11.20;90.40;;;;;;5073308;28;20036;-71
2023/01/12 08:16:20;;;;;;;0.57;0.57;;;11.20;90.40;;;;;;5103016;28;20043;-71
2023/01/12 08:19:18;;;;;;;1.23;0.75;;;11.20;90.40;;;;;;5094100;28;20119;-71
2023/01/12 08:21:48;;;;;;;0.50;0.50;;;11.20;90.40;;;;;;5087693;28;20119;-69
2023/01/12 08:24:20;;;;;;;0.82;0.40;;;11.20;90.40;;;;;;5078008;28;20024;-70
2023/01/12 08:26:49;;;;;;;1.23;0.60;;;11.20;90.40;;;;;;5096137;28;20523;-62
2023/01/12 08:29:22;;;;;;;2.25;0.60;;;11.30;90.40;;;;;;5090665;28;20504;-69
2023/01/12 08:31:48;;;;;;;4.13;0.60;;;11.30;90.40;;;;;;5090160;28;20108;-69
2023/01/12 08:34:14;;;;;;;2.38;0.40;;;11.30;90.40;;;;;;5103303;28;20028;-73
2023/01/12 08:36:41;;;;;;;0.60;0.50;;;11.30;90.40;;;;;;5081728;28;20093;-70
2023/01/12 08:39:07;;;;;;;2.25;0.60;;;11.30;90.40;;;;;;5105539;28;20104;-71
2023/01/12 08:41:33;;;;;;;2.28;0.63;;;11.40;90.40;;;;;;5107154;28;20028;-71
2023/01/12 08:44:02;;;;;;;2.05;0.85;;;11.40;90.40;;;;;;5094813;28;20502;-70
2023/01/12 08:46:31;;;;;;;0.70;0.60;;;11.40;90.40;;;;;;5100385;28;20066;-72
2023/01/12 08:48:58;;;;;;;0.63;0.63;;;11.40;90.40;;;;;;5084981;28;20463;-67
2023/01/12 08:51:24;;;;;;;1.08;0.57;;;11.40;90.40;;;;;;5095326;28;20024;-67
2023/01/12 08:53:50;;;;;;;2.42;0.60;;;11.40;90.40;;;;;;5091011;28;20028;-71
2023/01/12 08:56:16;;;;;;;0.60;0.60;;;11.40;90.40;;;;;;5098892;28;20045;-61
2023/01/12 08:58:42;;;;;;;1.17;0.73;;;11.40;90.50;;;;;;5074419;28;20035;-70
2023/01/12 09:01:09;;;;;;;1.45;0.60;;;11.40;90.50;;;;;;5099041;28;20028;-69
2023/01/12 09:03:36;;;;;;;0.50;0.50;;;11.40;90.50;;;;;;5074460;28;20024;-71
2023/01/12 09:06:34;;;;;;;0.73;0.60;;;11.40;90.50;;;;;;5092731;28;20425;-70
2023/01/12 09:09:03;;;;;;;0.75;0.63;;;11.50;90.50;;;;;;5081620;28;20066;-70
2023/01/12 09:11:30;;;;;;;0.73;0.60;;;11.40;90.50;;;;;;5102925;28;20075;-68
2023/01/12 09:13:57;;;;;;;0.63;0.55;;;11.50;90.60;;;;;;5107110;28;20422;-68
2023/01/12 09:16:24;;;;;;;1.23;0.88;;;11.50;90.60;;;;;;5090494;28;20012;-68
2023/01/12 09:18:51;;;;;;;0.93;0.73;;;11.50;90.60;;;;;;5088383;28;20103;-60
2023/01/12 09:21:19;;;;;;;0.88;0.60;;;11.50;90.60;;;;;;5089142;28;20059;-68
2023/01/12 09:23:45;;;;;;;0.50;0.50;;;11.50;90.60;;;;;;5103983;27;20039;-60
2023/01/12 09:26:17;;;;;;;1.50;0.60;;;11.60;90.60;;;;;;5088937;28;20032;-60
2023/01/12 09:28:44;;;;;;;0.67;0.47;;;11.60;90.60;;;;;;5088553;28;20037;-68
2023/01/12 09:31:18;;;;;;;0.40;0.40;;;11.60;90.60;;;;;;5097162;28;20047;-68
2023/01/12 09:33:44;;;;;;;2.55;0.90;;;11.60;90.60;;;;;;5078275;28;20023;-68
2023/01/12 09:36:14;;;;;;;0.80;0.65;;;11.60;90.60;;;;;;5093861;28;20031;-68
2023/01/12 09:38:41;;;;;;;0.30;0.30;;;11.60;90.70;;;;;;5085430;28;20489;-68
2023/01/12 09:41:15;;;;;;;0.73;0.57;;;11.60;90.80;;;;;;5097783;28;20097;-68
2023/01/12 09:49:25;;;;;;;0.75;0.75;;;11.60;90.90;;;;;;5078780;28;20046;-68
2023/01/12 09:51:59;;;;;;;0.65;0.50;;;11.60;91.00;;;;;;5077368;28;20024;-68
2023/01/12 09:54:25;;;;;;;0.60;0.60;;;11.60;91.00;;;;;;5087591;28;20517;-68
2023/01/12 09:57:03;;;;;;;0.75;0.60;;;11.60;91.00;;;;;;5088092;28;20059;-68
2023/01/12 09:59:50;;;;;;;0.55;0.43;;;11.70;91.00;;;;;;5070151;28;20142;-60
2023/01/12 10:02:16;;;;;;;3.00;1.10;;;11.70;91.00;;;;;;5091277;28;20493;-60
2023/01/12 10:04:42;;;;;;;0.70;0.70;;;11.70;91.10;;;;;;5088690;28;20021;-60
2023/01/12 10:07:13;;;;;;;1.08;0.95;;;11.70;91.10;;;;;;5086915;28;20024;-60
2023/01/12 10:09:40;;;;;;;1.02;0.73;;;11.70;91.20;;;;;;5088304;28;20195;-60
2023/01/12 10:12:13;;;;;;;0.70;0.68;;;11.80;91.20;;;;;;5086565;28;20027;-68
2023/01/12 10:15:25;;;;;;;1.05;0.68;;;11.70;91.20;;;;;;5089080;28;20032;-68
2023/01/12 10:18:24;;;;;;;0.60;0.60;;;11.80;91.20;;;;;;5087794;28;20073;-68
2023/01/12 10:20:51;;;;;;;0.73;0.70;;;11.80;91.20;;;;;;5073803;28;20115;-68
2023/01/12 10:23:23;;;;;;;0.98;0.70;;;11.80;91.30;;;;;;5084618;28;20107;-60
2023/01/12 10:26:10;;;;;;;0.55;0.55;;;11.80;91.50;;;;;;5087525;28;20032;-60
2023/01/12 10:28:36;;;;;;;0.93;0.50;;;11.80;91.20;;;;;;5083102;28;20564;-60
2023/01/12 10:31:03;;;;;;;1.00;0.75;;;11.80;91.30;;;;;;5082497;28;20031;-60
2023/01/12 10:33:36;;;;;;;0.45;0.45;;;11.90;91.30;;;;;;5094597;28;20027;-60
2023/01/12 10:36:14;;;;;;;0.65;0.40;;;11.90;91.20;;;;;;5086987;28;20027;-68
2023/01/12 10:38:59;;;;;;;0.32;0.30;;;11.90;91.20;;;;;;5093447;28;20432;-68
2023/01/12 10:41:38;;;;;;;0.50;0.50;;;11.90;91.20;;;;;;5086853;28;20032;-68
2023/01/12 10:44:15;;;;;;;1.05;0.52;;;11.90;91.20;;;;;;5089236;28;20024;-68
2023/01/12 10:46:41;;;;;;;0.75;0.40;;;11.90;91.20;;;;;;5094510;28;20043;-68
2023/01/12 10:49:22;;;;;;;0.57;0.35;;;11.90;91.20;;;;;;5083836;28;20372;-60
2023/01/12 10:51:58;;;;;;;1.92;0.45;;;12.00;91.20;;;;;;5083101;28;20404;-60
2023/01/12 10:54:27;;;;;;;0.20;0.20;;;12.00;91.20;;;;;;5084845;28;20028;-68
2023/01/12 10:57:13;;;;;;;0.63;0.30;;;12.00;91.20;;;;;;5092407;28;20056;-68
2023/01/12 10:59:40;;;;;;;0.32;0.30;;;12.00;91.10;;;;;;5091993;28;20103;-68
2023/01/12 11:02:07;;;;;;;0.52;0.50;;;12.00;91.20;;;;;;5093823;28;20348;-68
2023/01/12 11:04:40;;;;;;;0.30;0.30;;;12.10;91.10;;;;;;5085319;28;20119;-70
2023/01/12 11:07:13;;;;;;;0.55;0.50;;;12.10;91.10;;;;;;5093383;28;20016;-69
2023/01/12 11:09:41;;;;;;;0.30;0.30;;;12.10;91.10;;;;;;5088410;28;20085;-68
2023/01/12 11:12:36;;;;;;;2.63;0.50;;;12.10;91.10;;;;;;5080479;28;20025;-68
2023/01/12 11:15:11;;;;;;;0.30;0.30;;;12.20;91.00;;;;;;5089703;28;20073;-68
2023/01/12 11:18:08;;;;;;;0.73;0.45;;;12.20;91.00;;;;;;5085307;28;20111;-68
2023/01/12 11:20:39;;;;;;;0.50;0.47;;;12.20;91.00;;;;;;5068119;28;20082;-61
2023/01/12 11:23:37;;;;;;;0.30;0.30;;;12.10;91.00;;;;;;5089980;28;20028;-69
2023/01/12 11:26:19;;;;;;;0.52;0.50;;;12.10;91.10;;;;;;5066756;28;20030;-69
2023/01/12 11:28:53;;;;;;;0.40;0.38;;;12.20;91.10;;;;;;5079316;28;20024;-68
2023/01/12 11:31:24;;;;;;;0.40;0.30;;;12.20;91.20;;;;;;5089626;28;20078;-69
2023/01/12 11:34:12;;;;;;;0.57;0.37;;;12.20;91.20;;;;;;5094445;28;20035;-68
2023/01/12 11:36:45;;;;;;;0.20;0.20;;;12.20;91.20;;;;;;5092872;28;20273;-69
2023/01/12 11:39:15;;;;;;;0.40;0.40;;;12.20;91.20;;;;;;5079089;28;20039;-68
2023/01/12 11:44:43;;;;;;;0.17;0.17;;;12.20;91.10;;;;;;5095209;28;20035;-69
2023/01/12 11:47:14;;;;;;;1.38;0.50;;;12.20;91.10;;;;;;5088376;28;20039;-69
2023/01/12 11:49:54;;;;;;;0.35;0.35;;;12.20;91.10;;;;;;5093490;28;20029;-61
2023/01/12 11:52:20;;;;;;;0.43;0.40;;;12.20;91.10;;;;;;5094199;28;20368;-61
2023/01/12 11:54:46;;;;;;;1.10;0.47;;;12.20;91.10;;;;;;5088784;28;20036;-69
2023/01/12 11:57:29;;;;;;;0.30;0.30;;;12.30;91.10;;;;;;5091182;28;20103;-69
2023/01/12 12:00:05;;;;;;;0.32;0.30;;;12.30;91.10;;;;;;5097397;28;20477;-69
2023/01/12 12:02:49;;;;;;;0.73;0.50;;;12.30;91.10;;;;;;5089630;28;20032;-69
2023/01/12 12:05:24;;;;;;;0.40;0.40;;;12.30;91.10;;;;;;5090505;28;20490;-68
2023/01/12 12:08:27;;;;;;;0.60;0.60;;;12.30;91.10;;;;;;5092263;28;20039;-68
2023/01/12 12:10:58;;;;;;;0.60;0.60;;;12.30;91.00;;;;;;5067792;28;20428;-68
2023/01/12 12:13:52;;;;;;;0.73;0.60;;;12.30;91.10;;;;;;5072563;28;20013;-60
2023/01/12 12:16:36;;;;;;;0.50;0.50;;;12.30;91.10;;;;;;5049943;28;20474;-60
2023/01/12 12:19:24;;;;;;;0.30;0.30;;;12.30;91.10;;;;;;5074207;28;20542;-61
2023/01/12 12:21:56;;;;;;;0.60;0.60;;;12.20;91.20;;;;;;5062866;28;20094;-59
2023/01/12 12:24:54;;;;;;;0.38;0.38;;;12.20;91.30;;;;;;5077635;28;20031;-59
2023/01/12 12:27:37;;;;;;;0.28;0.28;;;12.30;91.30;;;;;;5048787;28;20044;-60
2023/01/12 12:30:22;;;;;;;1.13;0.70;;;12.30;91.30;;;;;;5063994;28;20012;-69
2023/01/12 12:32:47;;;;;;;0.30;0.30;;;12.30;91.20;;;;;;5075868;28;20394;-68
2023/01/12 12:35:22;;;;;;;0.30;0.30;;;12.30;91.20;;;;;;5074568;28;20096;-67
2023/01/12 12:37:59;;;;;;;0.88;0.70;;;12.30;91.20;;;;;;5072500;28;20366;-61
2023/01/12 12:46:59;;;;;;;0.30;0.30;;;12.30;91.30;;;;;;5062470;28;20279;-68
2023/01/12 12:49:28;;;;;;;0.85;0.57;;;12.30;91.30;;;;;;5074525;28;20333;-60
2023/01/12 12:51:57;;;;;;;0.57;0.30;;;12.30;91.30;;;;;;5075488;28;20016;-68
2023/01/12 12:54:25;;;;;;;0.25;0.25;;;12.30;91.30;;;;;;5073964;28;20027;-68
2023/01/12 12:56:51;;;;;;;1.05;0.60;;;12.30;91.30;;;;;;5075246;28;20028;-69
2023/01/12 12:59:31;;;;;;;0.47;0.40;;;12.30;91.30;;;;;;5064023;28;20054;-69
2023/01/12 13:02:02;;;;;;;0.82;0.38;;;12.30;91.20;;;;;;5074082;28;20027;-69
2023/01/12 13:04:43;;;;;;;1.02;0.77;;;12.30;91.30;;;;;;5065160;28;20064;-68
2023/01/12 13:07:19;;;;;;;0.30;0.30;;;12.40;91.20;;;;;;5065925;28;20826;-61
2023/01/12 13:09:47;;;;;;;0.50;0.50;;;12.40;91.20;;;;;;5074559;28;20061;-61
2023/01/12 13:12:20;;;;;;;0.68;0.30;;;12.30;91.20;;;;;;5091085;28;20027;-68
2023/01/12 13:15:19;;;;;;;2.85;0.65;;;12.40;91.20;;;;;;5097151;28;20133;-68
2023/01/12 13:17:47;;;;;;;0.22;0.22;;;12.40;91.10;;;;;;5100672;28;20043;-68
2023/01/12 13:20:13;;;;;;;0.40;0.40;;;12.40;91.10;;;;;;5096959;28;20764;-61
2023/01/12 13:22:46;;;;;;;0.65;0.43;;;12.40;91.00;;;;;;5098027;28;20039;-60
2023/01/12 13:25:15;;;;;;;4.07;0.30;;;12.40;91.00;;;;;;5089948;28;20035;-67
2023/01/12 13:27:54;;;;;;;0.52;0.52;;;12.40;91.00;;;;;;5096096;28;20031;-68
2023/01/12 13:30:28;;;;;;;0.68;0.52;;;12.40;90.90;;;;;;5096882;28;20028;-61
2023/01/12 13:33:14;;;;;;;0.55;0.40;;;12.40;91.00;;;;;;5101191;28;20031;-61
2023/01/12 13:35:43;;;;;;;0.40;0.40;;;12.30;90.90;;;;;;5091106;28;20028;-61
2023/01/12 13:38:27;;;;;;;0.65;0.60;;;12.30;90.90;;;;;;5087125;28;20089;-67
2023/01/12 13:44:23;;;;;;;0.38;0.32;;;12.30;90.90;;;;;;5095037;28;20038;-68
2023/01/12 13:46:50;;;;;;;0.40;0.35;;;12.30;90.90;;;;;;5099310;28;20140;-68
2023/01/12 13:49:26;;;;;;;0.30;0.30;;;12.20;90.90;;;;;;5097085;28;20031;-68